sensor_id;sensor_type;location;lat;lon;timestamp;temperature;humidity
35258;DHT22;21385;50.878;8.050;2023-04-25T00:02:01;7.00;99.90
35258;DHT22;21385;50.878;8.050;2023-04-25T00:04:27;6.90;99.90
35258;DHT22;21385;50.878;8.050;2023-04-25T00:06:53;6.90;99.90
35258;DHT22;21385;50.878;8.050;2023-04-25T00:09:19;6.80;99.90
35258;DHT22;21385;50.878;8.050;2023-04-25T00:11:45;6.80;99.90
35258;DHT22;21385;50.878;8.050;2023-04-25T00:14:10;6.80;99.90
35258;DHT22;21385;50.878;8.050;2023-04-25T00:16:36;6.70;99.90
35258;DHT22;21385;50.878;8.050;2023-04-25T00:19:02;6.70;99.90
35258;DHT22;21385;50.878;8.050;2023-04-25T00:21:28;6.70;99.90
35258;DHT22;21385;50.878;8.050;2023-04-25T00:23:55;6.60;99.90
35258;DHT22;21385;50.878;8.050;2023-04-25T00:26:21;6.60;99.90
35258;DHT22;21385;50.878;8.050;2023-04-25T00:28:47;6.50;99.90
35258;DHT22;21385;50.878;8.050;2023-04-25T00:31:13;6.40;99.90
35258;DHT22;21385;50.878;8.050;2023-04-25T00:33:39;6.40;99.90
35258;DHT22;21385;50.878;8.050;2023-04-25T00:36:05;6.40;99.90
35258;DHT22;21385;50.878;8.050;2023-04-25T00:38:30;6.40;99.90
35258;DHT22;21385;50.878;8.050;2023-04-25T00:40:57;6.40;99.90
35258;DHT22;21385;50.878;8.050;2023-04-25T00:43:26;6.40;99.90
35258;DHT22;21385;50.878;8.050;2023-04-25T00:45:52;6.30;99.90
35258;DHT22;21385;50.878;8.050;2023-04-25T00:48:20;6.30;99.90
35258;DHT22;21385;50.878;8.050;2023-04-25T00:50:59;6.30;99.90
35258;DHT22;21385;50.878;8.050;2023-04-25T00:53:26;6.30;99.90
35258;DHT22;21385;50.878;8.050;2023-04-25T00:55:52;6.30;99.90
35258;DHT22;21385;50.878;8.050;2023-04-25T00:58:19;6.30;99.90
35258;DHT22;21385;50.878;8.050;2023-04-25T01:00:46;6.30;99.90
35258;DHT22;21385;50.878;8.050;2023-04-25T01:03:13;6.30;99.90
35258;DHT22;21385;50.878;8.050;2023-04-25T01:05:40;6.20;99.90
35258;DHT22;21385;50.878;8.050;2023-04-25T01:08:07;6.20;99.90
35258;DHT22;21385;50.878;8.050;2023-04-25T01:10:32;6.20;99.90
35258;DHT22;21385;50.878;8.050;2023-04-25T01:12:58;6.30;99.90
35258;DHT22;21385;50.878;8.050;2023-04-25T01:15:23;6.30;99.90
35258;DHT22;21385;50.878;8.050;2023-04-25T01:17:49;6.30;99.90
35258;DHT22;21385;50.878;8.050;2023-04-25T01:20:15;6.30;99.90
35258;DHT22;21385;50.878;8.050;2023-04-25T01:22:41;6.20;99.90
35258;DHT22;21385;50.878;8.050;2023-04-25T01:25:07;6.20;99.90
35258;DHT22;21385;50.878;8.050;2023-04-25T01:27:34;6.20;99.90
35258;DHT22;21385;50.878;8.050;2023-04-25T01:30:00;6.20;99.90
35258;DHT22;21385;50.878;8.050;2023-04-25T01:32:26;6.20;99.90
35258;DHT22;21385;50.878;8.050;2023-04-25T01:34:52;6.30;99.90
35258;DHT22;21385;50.878;8.050;2023-04-25T01:37:18;6.30;99.90
35258;DHT22;21385;50.878;8.050;2023-04-25T01:39:43;6.10;99.90
35258;DHT22;21385;50.878;8.050;2023-04-25T01:42:09;6.10;99.90
35258;DHT22;21385;50.878;8.050;2023-04-25T01:44:35;6.10;99.90
35258;DHT22;21385;50.878;8.050;2023-04-25T01:47:01;6.10;99.90
35258;DHT22;21385;50.878;8.050;2023-04-25T01:49:26;6.00;99.90
35258;DHT22;21385;50.878;8.050;2023-04-25T01:51:52;6.00;99.90
35258;DHT22;21385;50.878;8.050;2023-04-25T01:54:18;6.10;99.90
35258;DHT22;21385;50.878;8.050;2023-04-25T01:56:50;6.10;99.90
35258;DHT22;21385;50.878;8.050;2023-04-25T01:59:15;6.10;99.90
35258;DHT22;21385;50.878;8.050;2023-04-25T02:01:41;6.10;99.90
35258;DHT22;21385;50.878;8.050;2023-04-25T02:04:06;6.00;99.90
35258;DHT22;21385;50.878;8.050;2023-04-25T02:06:32;5.90;99.90
35258;DHT22;21385;50.878;8.050;2023-04-25T02:08:57;5.90;99.90
35258;DHT22;21385;50.878;8.050;2023-04-25T02:11:23;5.90;99.90
35258;DHT22;21385;50.878;8.050;2023-04-25T02:13:48;5.90;99.90
35258;DHT22;21385;50.878;8.050;2023-04-25T02:16:14;5.90;99.90
35258;DHT22;21385;50.878;8.050;2023-04-25T02:18:40;5.90;99.90
35258;DHT22;21385;50.878;8.050;2023-04-25T02:21:05;5.90;99.90
35258;DHT22;21385;50.878;8.050;2023-04-25T02:23:31;6.00;99.90
35258;DHT22;21385;50.878;8.050;2023-04-25T02:25:57;6.00;99.90
35258;DHT22;21385;50.878;8.050;2023-04-25T02:28:24;6.00;99.90
35258;DHT22;21385;50.878;8.050;2023-04-25T02:30:51;6.00;99.90
35258;DHT22;21385;50.878;8.050;2023-04-25T02:33:17;6.00;99.90
35258;DHT22;21385;50.878;8.050;2023-04-25T02:35:42;6.00;99.90
35258;DHT22;21385;50.878;8.050;2023-04-25T02:38:08;6.00;99.90
35258;DHT22;21385;50.878;8.050;2023-04-25T02:40:34;6.10;99.90
35258;DHT22;21385;50.878;8.050;2023-04-25T02:42:59;6.00;99.90
35258;DHT22;21385;50.878;8.050;2023-04-25T02:45:25;6.10;99.90
35258;DHT22;21385;50.878;8.050;2023-04-25T02:47:50;6.10;99.90
35258;DHT22;21385;50.878;8.050;2023-04-25T02:50:16;6.20;99.90
35258;DHT22;21385;50.878;8.050;2023-04-25T02:52:43;6.20;99.90
35258;DHT22;21385;50.878;8.050;2023-04-25T02:55:08;6.30;99.90
35258;DHT22;21385;50.878;8.050;2023-04-25T02:57:34;6.30;99.90
35258;DHT22;21385;50.878;8.050;2023-04-25T03:00:00;6.30;99.90
35258;DHT22;21385;50.878;8.050;2023-04-25T03:02:25;6.30;99.90
35258;DHT22;21385;50.878;8.050;2023-04-25T03:04:51;6.30;99.90
35258;DHT22;21385;50.878;8.050;2023-04-25T03:07:17;6.30;99.90
35258;DHT22;21385;50.878;8.050;2023-04-25T03:09:43;6.20;99.90
35258;DHT22;21385;50.878;8.050;2023-04-25T03:12:08;6.20;99.90
35258;DHT22;21385;50.878;8.050;2023-04-25T03:14:34;6.10;99.90
35258;DHT22;21385;50.878;8.050;2023-04-25T03:16:59;6.10;99.90
35258;DHT22;21385;50.878;8.050;2023-04-25T03:19:25;6.00;99.90
35258;DHT22;21385;50.878;8.050;2023-04-25T03:21:51;5.90;99.90
35258;DHT22;21385;50.878;8.050;2023-04-25T03:24:16;5.80;99.90
35258;DHT22;21385;50.878;8.050;2023-04-25T03:26:42;5.80;99.90
35258;DHT22;21385;50.878;8.050;2023-04-25T03:29:08;5.80;99.90
35258;DHT22;21385;50.878;8.050;2023-04-25T03:31:34;5.80;99.90
35258;DHT22;21385;50.878;8.050;2023-04-25T03:33:59;5.80;99.90
35258;DHT22;21385;50.878;8.050;2023-04-25T03:36:25;5.80;99.90
35258;DHT22;21385;50.878;8.050;2023-04-25T03:38:50;5.80;99.90
35258;DHT22;21385;50.878;8.050;2023-04-25T03:41:16;5.80;99.90
35258;DHT22;21385;50.878;8.050;2023-04-25T03:43:41;5.80;99.90
35258;DHT22;21385;50.878;8.050;2023-04-25T03:46:07;5.80;99.90
35258;DHT22;21385;50.878;8.050;2023-04-25T03:48:33;5.80;99.90
35258;DHT22;21385;50.878;8.050;2023-04-25T03:50:58;5.70;99.90
35258;DHT22;21385;50.878;8.050;2023-04-25T03:53:24;5.70;99.90
35258;DHT22;21385;50.878;8.050;2023-04-25T03:55:50;5.70;99.90
35258;DHT22;21385;50.878;8.050;2023-04-25T03:58:15;5.70;99.90
35258;DHT22;21385;50.878;8.050;2023-04-25T04:00:41;5.70;99.90
35258;DHT22;21385;50.878;8.050;2023-04-25T04:03:06;5.70;99.90
35258;DHT22;21385;50.878;8.050;2023-04-25T04:05:32;5.70;99.90
35258;DHT22;21385;50.878;8.050;2023-04-25T04:07:58;5.70;99.90
35258;DHT22;21385;50.878;8.050;2023-04-25T04:10:23;5.80;99.90
35258;DHT22;21385;50.878;8.050;2023-04-25T04:12:49;5.70;99.90
35258;DHT22;21385;50.878;8.050;2023-04-25T04:15:14;5.70;99.90
35258;DHT22;21385;50.878;8.050;2023-04-25T04:17:40;5.70;99.90
35258;DHT22;21385;50.878;8.050;2023-04-25T04:20:06;5.60;99.90
35258;DHT22;21385;50.878;8.050;2023-04-25T04:22:33;5.60;99.90
35258;DHT22;21385;50.878;8.050;2023-04-25T04:24:59;5.50;99.90
35258;DHT22;21385;50.878;8.050;2023-04-25T04:27:24;5.50;99.90
35258;DHT22;21385;50.878;8.050;2023-04-25T04:29:50;5.60;99.90
35258;DHT22;21385;50.878;8.050;2023-04-25T04:32:17;5.50;99.90
35258;DHT22;21385;50.878;8.050;2023-04-25T04:34:43;5.50;99.90
35258;DHT22;21385;50.878;8.050;2023-04-25T04:37:09;5.60;99.90
35258;DHT22;21385;50.878;8.050;2023-04-25T04:39:36;5.60;99.90
35258;DHT22;21385;50.878;8.050;2023-04-25T04:42:02;5.60;99.90
35258;DHT22;21385;50.878;8.050;2023-04-25T04:44:29;5.60;99.90
35258;DHT22;21385;50.878;8.050;2023-04-25T04:46:58;5.60;99.90
35258;DHT22;21385;50.878;8.050;2023-04-25T04:49:24;5.60;99.90
35258;DHT22;21385;50.878;8.050;2023-04-25T04:51:50;5.60;99.90
35258;DHT22;21385;50.878;8.050;2023-04-25T04:54:15;5.60;99.90
35258;DHT22;21385;50.878;8.050;2023-04-25T04:56:41;5.60;99.90
35258;DHT22;21385;50.878;8.050;2023-04-25T04:59:07;5.60;99.90
35258;DHT22;21385;50.878;8.050;2023-04-25T05:01:33;5.60;99.90
35258;DHT22;21385;50.878;8.050;2023-04-25T05:04:01;5.60;99.90
35258;DHT22;21385;50.878;8.050;2023-04-25T05:06:28;5.60;99.90
35258;DHT22;21385;50.878;8.050;2023-04-25T05:08:57;5.70;99.90
35258;DHT22;21385;50.878;8.050;2023-04-25T05:11:23;5.70;99.90
35258;DHT22;21385;50.878;8.050;2023-04-25T05:13:52;5.80;99.90
35258;DHT22;21385;50.878;8.050;2023-04-25T05:16:18;5.80;99.90
35258;DHT22;21385;50.878;8.050;2023-04-25T05:18:43;5.90;99.90
35258;DHT22;21385;50.878;8.050;2023-04-25T05:21:09;6.00;99.90
35258;DHT22;21385;50.878;8.050;2023-04-25T05:23:35;6.00;99.90
35258;DHT22;21385;50.878;8.050;2023-04-25T05:26:00;6.00;99.90
35258;DHT22;21385;50.878;8.050;2023-04-25T05:28:26;6.00;99.90
35258;DHT22;21385;50.878;8.050;2023-04-25T05:30:52;6.10;99.90
35258;DHT22;21385;50.878;8.050;2023-04-25T05:33:18;6.20;99.90
35258;DHT22;21385;50.878;8.050;2023-04-25T05:35:44;6.20;99.90
35258;DHT22;21385;50.878;8.050;2023-04-25T05:38:10;6.10;99.90
35258;DHT22;21385;50.878;8.050;2023-04-25T05:40:36;6.20;99.90
35258;DHT22;21385;50.878;8.050;2023-04-25T05:43:01;6.20;99.90
35258;DHT22;21385;50.878;8.050;2023-04-25T05:45:27;6.20;99.90
35258;DHT22;21385;50.878;8.050;2023-04-25T05:47:53;6.20;99.90
35258;DHT22;21385;50.878;8.050;2023-04-25T05:50:18;6.30;99.90
35258;DHT22;21385;50.878;8.050;2023-04-25T05:52:44;6.40;99.90
35258;DHT22;21385;50.878;8.050;2023-04-25T05:55:09;6.40;99.90
35258;DHT22;21385;50.878;8.050;2023-04-25T05:57:35;6.50;99.90
35258;DHT22;21385;50.878;8.050;2023-04-25T06:00:01;6.60;99.90
35258;DHT22;21385;50.878;8.050;2023-04-25T06:02:26;6.60;99.90
35258;DHT22;21385;50.878;8.050;2023-04-25T06:04:52;6.50;99.90
35258;DHT22;21385;50.878;8.050;2023-04-25T06:07:19;6.60;99.90
35258;DHT22;21385;50.878;8.050;2023-04-25T06:09:45;6.50;99.90
35258;DHT22;21385;50.878;8.050;2023-04-25T06:12:11;6.50;99.90
35258;DHT22;21385;50.878;8.050;2023-04-25T06:14:36;6.50;99.90
35258;DHT22;21385;50.878;8.050;2023-04-25T06:17:03;6.40;99.90
35258;DHT22;21385;50.878;8.050;2023-04-25T06:19:34;6.30;99.90
35258;DHT22;21385;50.878;8.050;2023-04-25T06:21:59;6.30;99.90
35258;DHT22;21385;50.878;8.050;2023-04-25T06:24:25;6.30;99.90
35258;DHT22;21385;50.878;8.050;2023-04-25T06:26:51;6.30;99.90
35258;DHT22;21385;50.878;8.050;2023-04-25T06:29:16;6.30;99.90
35258;DHT22;21385;50.878;8.050;2023-04-25T06:31:42;6.30;99.90
35258;DHT22;21385;50.878;8.050;2023-04-25T06:34:08;6.30;99.90
35258;DHT22;21385;50.878;8.050;2023-04-25T06:36:33;6.30;99.90
35258;DHT22;21385;50.878;8.050;2023-04-25T06:38:59;6.30;99.90
35258;DHT22;21385;50.878;8.050;2023-04-25T06:41:24;6.40;99.90
35258;DHT22;21385;50.878;8.050;2023-04-25T06:43:50;6.50;99.90
35258;DHT22;21385;50.878;8.050;2023-04-25T06:46:16;6.50;99.90
35258;DHT22;21385;50.878;8.050;2023-04-25T06:48:41;6.50;99.90
35258;DHT22;21385;50.878;8.050;2023-04-25T06:51:07;6.50;99.90
35258;DHT22;21385;50.878;8.050;2023-04-25T06:53:32;6.50;99.90
35258;DHT22;21385;50.878;8.050;2023-04-25T06:55:58;6.60;99.90
35258;DHT22;21385;50.878;8.050;2023-04-25T06:58:24;6.70;99.90
35258;DHT22;21385;50.878;8.050;2023-04-25T07:00:49;6.70;99.90
35258;DHT22;21385;50.878;8.050;2023-04-25T07:03:15;6.70;99.90
35258;DHT22;21385;50.878;8.050;2023-04-25T07:05:41;6.80;99.90
35258;DHT22;21385;50.878;8.050;2023-04-25T07:08:06;6.80;99.90
35258;DHT22;21385;50.878;8.050;2023-04-25T07:10:32;6.80;99.90
35258;DHT22;21385;50.878;8.050;2023-04-25T07:12:57;6.80;99.90
35258;DHT22;21385;50.878;8.050;2023-04-25T07:15:23;6.80;99.90
35258;DHT22;21385;50.878;8.050;2023-04-25T07:17:48;6.80;99.90
35258;DHT22;21385;50.878;8.050;2023-04-25T07:20:14;6.80;99.90
35258;DHT22;21385;50.878;8.050;2023-04-25T07:22:41;6.80;99.90
35258;DHT22;21385;50.878;8.050;2023-04-25T07:25:07;6.70;99.90
35258;DHT22;21385;50.878;8.050;2023-04-25T07:27:33;6.70;99.90
35258;DHT22;21385;50.878;8.050;2023-04-25T07:29:59;6.60;99.90
35258;DHT22;21385;50.878;8.050;2023-04-25T07:32:25;6.60;99.90
35258;DHT22;21385;50.878;8.050;2023-04-25T07:34:51;6.50;99.90
35258;DHT22;21385;50.878;8.050;2023-04-25T07:37:16;6.40;99.90
35258;DHT22;21385;50.878;8.050;2023-04-25T07:39:44;6.50;99.90
35258;DHT22;21385;50.878;8.050;2023-04-25T07:42:11;6.60;99.90
35258;DHT22;21385;50.878;8.050;2023-04-25T07:44:37;6.60;99.90
35258;DHT22;21385;50.878;8.050;2023-04-25T07:47:07;6.50;99.90
35258;DHT22;21385;50.878;8.050;2023-04-25T07:49:36;6.60;99.90
35258;DHT22;21385;50.878;8.050;2023-04-25T07:52:04;6.80;99.90
35258;DHT22;21385;50.878;8.050;2023-04-25T07:54:31;6.90;99.90
35258;DHT22;21385;50.878;8.050;2023-04-25T07:56:57;7.00;99.90
35258;DHT22;21385;50.878;8.050;2023-04-25T07:59:23;7.10;99.90
35258;DHT22;21385;50.878;8.050;2023-04-25T08:01:49;7.30;99.90
35258;DHT22;21385;50.878;8.050;2023-04-25T08:04:14;7.30;99.90
35258;DHT22;21385;50.878;8.050;2023-04-25T08:06:40;7.30;99.90
35258;DHT22;21385;50.878;8.050;2023-04-25T08:09:06;7.30;99.90
35258;DHT22;21385;50.878;8.050;2023-04-25T08:11:32;7.30;99.90
35258;DHT22;21385;50.878;8.050;2023-04-25T08:13:57;7.30;99.90
35258;DHT22;21385;50.878;8.050;2023-04-25T08:16:23;7.40;99.90
35258;DHT22;21385;50.878;8.050;2023-04-25T08:18:50;7.50;99.90
35258;DHT22;21385;50.878;8.050;2023-04-25T08:21:16;7.60;99.90
35258;DHT22;21385;50.878;8.050;2023-04-25T08:23:41;7.80;99.90
35258;DHT22;21385;50.878;8.050;2023-04-25T08:26:10;8.00;99.90
35258;DHT22;21385;50.878;8.050;2023-04-25T08:28:35;8.20;99.90
35258;DHT22;21385;50.878;8.050;2023-04-25T08:31:01;8.40;99.90
35258;DHT22;21385;50.878;8.050;2023-04-25T08:33:27;8.60;99.90
35258;DHT22;21385;50.878;8.050;2023-04-25T08:35:52;8.70;99.90
35258;DHT22;21385;50.878;8.050;2023-04-25T08:38:18;8.70;99.90
35258;DHT22;21385;50.878;8.050;2023-04-25T08:40:45;8.60;99.90
35258;DHT22;21385;50.878;8.050;2023-04-25T08:43:14;8.50;99.90
35258;DHT22;21385;50.878;8.050;2023-04-25T08:45:40;8.50;99.90
35258;DHT22;21385;50.878;8.050;2023-04-25T08:48:10;8.50;99.90
35258;DHT22;21385;50.878;8.050;2023-04-25T08:50:39;8.60;99.90
35258;DHT22;21385;50.878;8.050;2023-04-25T08:53:09;8.60;99.90
35258;DHT22;21385;50.878;8.050;2023-04-25T08:55:37;8.70;99.90
35258;DHT22;21385;50.878;8.050;2023-04-25T08:58:04;8.70;99.90
35258;DHT22;21385;50.878;8.050;2023-04-25T09:00:30;8.70;99.90
35258;DHT22;21385;50.878;8.050;2023-04-25T09:02:58;8.70;99.90
35258;DHT22;21385;50.878;8.050;2023-04-25T09:05:24;8.60;99.90
35258;DHT22;21385;50.878;8.050;2023-04-25T09:07:49;8.60;99.90
35258;DHT22;21385;50.878;8.050;2023-04-25T09:10:15;8.50;99.90
35258;DHT22;21385;50.878;8.050;2023-04-25T09:12:41;8.50;99.90
35258;DHT22;21385;50.878;8.050;2023-04-25T09:15:09;8.50;99.90
35258;DHT22;21385;50.878;8.050;2023-04-25T09:17:35;8.60;99.90
35258;DHT22;21385;50.878;8.050;2023-04-25T09:20:07;8.70;99.90
35258;DHT22;21385;50.878;8.050;2023-04-25T09:22:34;8.80;99.90
35258;DHT22;21385;50.878;8.050;2023-04-25T09:25:11;8.70;99.90
35258;DHT22;21385;50.878;8.050;2023-04-25T09:27:52;8.60;99.90
35258;DHT22;21385;50.878;8.050;2023-04-25T09:30:18;8.60;99.90
35258;DHT22;21385;50.878;8.050;2023-04-25T09:32:56;8.70;99.90
35258;DHT22;21385;50.878;8.050;2023-04-25T09:35:25;8.60;99.90
35258;DHT22;21385;50.878;8.050;2023-04-25T09:37:51;8.60;99.90
35258;DHT22;21385;50.878;8.050;2023-04-25T09:40:18;8.50;99.90
35258;DHT22;21385;50.878;8.050;2023-04-25T09:42:43;8.50;99.90
35258;DHT22;21385;50.878;8.050;2023-04-25T09:45:13;8.40;99.90
35258;DHT22;21385;50.878;8.050;2023-04-25T09:47:40;8.30;99.90
35258;DHT22;21385;50.878;8.050;2023-04-25T09:50:16;8.30;99.90
35258;DHT22;21385;50.878;8.050;2023-04-25T09:52:42;8.30;99.90
35258;DHT22;21385;50.878;8.050;2023-04-25T09:55:08;8.30;99.90
35258;DHT22;21385;50.878;8.050;2023-04-25T09:57:34;8.20;99.90
35258;DHT22;21385;50.878;8.050;2023-04-25T10:00:01;8.10;99.90
35258;DHT22;21385;50.878;8.050;2023-04-25T10:02:29;8.10;99.90
35258;DHT22;21385;50.878;8.050;2023-04-25T10:04:56;8.10;99.90
35258;DHT22;21385;50.878;8.050;2023-04-25T10:07:30;8.20;99.90
35258;DHT22;21385;50.878;8.050;2023-04-25T10:10:01;8.30;99.90
35258;DHT22;21385;50.878;8.050;2023-04-25T10:12:28;8.30;99.90
35258;DHT22;21385;50.878;8.050;2023-04-25T10:14:55;8.40;99.90
35258;DHT22;21385;50.878;8.050;2023-04-25T10:17:20;8.40;99.90
35258;DHT22;21385;50.878;8.050;2023-04-25T10:19:47;8.40;99.90
35258;DHT22;21385;50.878;8.050;2023-04-25T10:24:38;8.50;99.90
35258;DHT22;21385;50.878;8.050;2023-04-25T10:27:05;8.60;99.90
35258;DHT22;21385;50.878;8.050;2023-04-25T10:29:31;8.70;99.90
35258;DHT22;21385;50.878;8.050;2023-04-25T10:31:57;8.80;99.90
35258;DHT22;21385;50.878;8.050;2023-04-25T10:34:43;8.90;99.90
35258;DHT22;21385;50.878;8.050;2023-04-25T10:37:12;9.10;99.90
35258;DHT22;21385;50.878;8.050;2023-04-25T10:39:40;9.30;99.90
35258;DHT22;21385;50.878;8.050;2023-04-25T10:42:09;9.40;99.90
35258;DHT22;21385;50.878;8.050;2023-04-25T10:44:37;9.50;99.90
35258;DHT22;21385;50.878;8.050;2023-04-25T10:47:03;9.50;99.90
35258;DHT22;21385;50.878;8.050;2023-04-25T10:49:36;9.40;99.90
35258;DHT22;21385;50.878;8.050;2023-04-25T10:52:15;9.50;99.90
35258;DHT22;21385;50.878;8.050;2023-04-25T10:54:42;9.80;99.90
35258;DHT22;21385;50.878;8.050;2023-04-25T10:57:26;10.00;99.90
35258;DHT22;21385;50.878;8.050;2023-04-25T10:59:52;10.10;99.90
35258;DHT22;21385;50.878;8.050;2023-04-25T11:02:18;10.10;99.90
35258;DHT22;21385;50.878;8.050;2023-04-25T11:04:44;10.20;99.90
35258;DHT22;21385;50.878;8.050;2023-04-25T11:07:12;10.20;99.90
35258;DHT22;21385;50.878;8.050;2023-04-25T11:09:40;10.20;99.90
35258;DHT22;21385;50.878;8.050;2023-04-25T11:12:08;10.20;99.90
35258;DHT22;21385;50.878;8.050;2023-04-25T11:14:33;10.10;99.90
35258;DHT22;21385;50.878;8.050;2023-04-25T11:17:00;9.90;99.90
35258;DHT22;21385;50.878;8.050;2023-04-25T11:19:28;9.80;99.90
35258;DHT22;21385;50.878;8.050;2023-04-25T11:21:58;9.70;99.90
35258;DHT22;21385;50.878;8.050;2023-04-25T11:24:32;9.50;99.90
35258;DHT22;21385;50.878;8.050;2023-04-25T11:27:00;9.50;99.90
35258;DHT22;21385;50.878;8.050;2023-04-25T11:29:30;9.50;99.90
35258;DHT22;21385;50.878;8.050;2023-04-25T11:31:56;9.70;99.90
35258;DHT22;21385;50.878;8.050;2023-04-25T11:34:30;9.90;99.90
35258;DHT22;21385;50.878;8.050;2023-04-25T11:36:56;10.20;99.90
35258;DHT22;21385;50.878;8.050;2023-04-25T11:39:24;10.30;99.90
35258;DHT22;21385;50.878;8.050;2023-04-25T11:41:50;10.40;99.90
35258;DHT22;21385;50.878;8.050;2023-04-25T11:44:16;10.20;99.70
35258;DHT22;21385;50.878;8.050;2023-04-25T11:46:43;10.10;99.90
35258;DHT22;21385;50.878;8.050;2023-04-25T11:49:08;10.00;99.90
35258;DHT22;21385;50.878;8.050;2023-04-25T11:51:41;10.00;99.90
35258;DHT22;21385;50.878;8.050;2023-04-25T11:54:07;9.90;99.90
35258;DHT22;21385;50.878;8.050;2023-04-25T11:56:33;9.80;99.90
35258;DHT22;21385;50.878;8.050;2023-04-25T11:59:02;9.80;99.90
35258;DHT22;21385;50.878;8.050;2023-04-25T12:01:30;9.70;99.20
35258;DHT22;21385;50.878;8.050;2023-04-25T12:03:56;9.70;99.80
35258;DHT22;21385;50.878;8.050;2023-04-25T12:06:27;9.60;98.40
35258;DHT22;21385;50.878;8.050;2023-04-25T12:09:08;9.60;98.30
35258;DHT22;21385;50.878;8.050;2023-04-25T12:11:44;9.80;97.60
35258;DHT22;21385;50.878;8.050;2023-04-25T12:14:23;10.00;97.00
35258;DHT22;21385;50.878;8.050;2023-04-25T12:16:49;10.20;95.80
35258;DHT22;21385;50.878;8.050;2023-04-25T12:19:17;10.50;95.10
35258;DHT22;21385;50.878;8.050;2023-04-25T12:21:43;10.90;93.30
35258;DHT22;21385;50.878;8.050;2023-04-25T12:24:14;11.20;92.70
35258;DHT22;21385;50.878;8.050;2023-04-25T12:26:58;11.40;91.60
35258;DHT22;21385;50.878;8.050;2023-04-25T12:29:25;11.60;91.80
35258;DHT22;21385;50.878;8.050;2023-04-25T12:31:52;11.70;90.40
35258;DHT22;21385;50.878;8.050;2023-04-25T12:34:19;11.80;89.00
35258;DHT22;21385;50.878;8.050;2023-04-25T12:36:45;11.80;89.60
35258;DHT22;21385;50.878;8.050;2023-04-25T12:39:15;11.70;89.50
35258;DHT22;21385;50.878;8.050;2023-04-25T12:41:41;11.50;88.50
35258;DHT22;21385;50.878;8.050;2023-04-25T12:44:06;11.20;89.00
35258;DHT22;21385;50.878;8.050;2023-04-25T12:46:32;10.90;87.90
35258;DHT22;21385;50.878;8.050;2023-04-25T12:48:57;10.80;89.10
35258;DHT22;21385;50.878;8.050;2023-04-25T12:51:23;10.60;89.00
35258;DHT22;21385;50.878;8.050;2023-04-25T12:53:50;10.60;90.00
35258;DHT22;21385;50.878;8.050;2023-04-25T12:56:16;10.70;87.50
35258;DHT22;21385;50.878;8.050;2023-04-25T12:58:42;10.70;87.90
35258;DHT22;21385;50.878;8.050;2023-04-25T13:01:09;10.80;85.90
35258;DHT22;21385;50.878;8.050;2023-04-25T13:03:35;10.80;86.80
35258;DHT22;21385;50.878;8.050;2023-04-25T13:06:00;10.70;83.50
35258;DHT22;21385;50.878;8.050;2023-04-25T13:08:26;10.60;82.80
35258;DHT22;21385;50.878;8.050;2023-04-25T13:10:52;10.50;83.60
35258;DHT22;21385;50.878;8.050;2023-04-25T13:13:17;10.50;83.40
35258;DHT22;21385;50.878;8.050;2023-04-25T13:15:43;10.60;86.20
35258;DHT22;21385;50.878;8.050;2023-04-25T13:18:09;11.10;85.70
35258;DHT22;21385;50.878;8.050;2023-04-25T13:20:34;11.60;84.50
35258;DHT22;21385;50.878;8.050;2023-04-25T13:23:01;12.10;84.30
35258;DHT22;21385;50.878;8.050;2023-04-25T13:25:26;12.40;77.20
35258;DHT22;21385;50.878;8.050;2023-04-25T13:27:52;12.50;79.40
35258;DHT22;21385;50.878;8.050;2023-04-25T13:30:17;12.30;77.50
35258;DHT22;21385;50.878;8.050;2023-04-25T13:32:43;12.10;81.20
35258;DHT22;21385;50.878;8.050;2023-04-25T13:35:11;11.80;79.80
35258;DHT22;21385;50.878;8.050;2023-04-25T13:37:37;11.50;83.70
35258;DHT22;21385;50.878;8.050;2023-04-25T13:40:05;11.10;82.50
35258;DHT22;21385;50.878;8.050;2023-04-25T13:42:32;10.80;85.80
35258;DHT22;21385;50.878;8.050;2023-04-25T13:44:57;10.70;86.00
35258;DHT22;21385;50.878;8.050;2023-04-25T13:47:23;10.50;86.60
35258;DHT22;21385;50.878;8.050;2023-04-25T13:49:49;10.30;88.50
35258;DHT22;21385;50.878;8.050;2023-04-25T13:52:15;10.20;89.70
35258;DHT22;21385;50.878;8.050;2023-04-25T13:54:41;10.10;90.00
35258;DHT22;21385;50.878;8.050;2023-04-25T13:57:06;10.10;90.50
35258;DHT22;21385;50.878;8.050;2023-04-25T13:59:32;10.40;91.10
35258;DHT22;21385;50.878;8.050;2023-04-25T14:01:58;10.90;90.10
35258;DHT22;21385;50.878;8.050;2023-04-25T14:04:24;11.30;90.50
35258;DHT22;21385;50.878;8.050;2023-04-25T14:06:50;11.40;90.00
35258;DHT22;21385;50.878;8.050;2023-04-25T14:09:17;11.50;90.20
35258;DHT22;21385;50.878;8.050;2023-04-25T14:11:42;11.40;89.90
35258;DHT22;21385;50.878;8.050;2023-04-25T14:14:08;11.30;90.30
35258;DHT22;21385;50.878;8.050;2023-04-25T14:16:34;11.10;90.50
35258;DHT22;21385;50.878;8.050;2023-04-25T14:19:00;11.00;90.10
35258;DHT22;21385;50.878;8.050;2023-04-25T14:21:26;10.90;90.80
35258;DHT22;21385;50.878;8.050;2023-04-25T14:23:52;10.90;91.00
35258;DHT22;21385;50.878;8.050;2023-04-25T14:26:18;10.80;91.50
35258;DHT22;21385;50.878;8.050;2023-04-25T14:28:44;10.80;91.60
35258;DHT22;21385;50.878;8.050;2023-04-25T14:31:09;10.90;92.10
35258;DHT22;21385;50.878;8.050;2023-04-25T14:33:35;11.00;91.60
35258;DHT22;21385;50.878;8.050;2023-04-25T14:36:02;11.10;89.90
35258;DHT22;21385;50.878;8.050;2023-04-25T14:38:28;10.90;90.20
35258;DHT22;21385;50.878;8.050;2023-04-25T14:40:54;10.90;91.40
35258;DHT22;21385;50.878;8.050;2023-04-25T14:43:19;10.70;90.20
35258;DHT22;21385;50.878;8.050;2023-04-25T14:45:45;10.50;90.80
35258;DHT22;21385;50.878;8.050;2023-04-25T14:48:11;10.30;91.20
35258;DHT22;21385;50.878;8.050;2023-04-25T14:50:36;10.10;91.50
35258;DHT22;21385;50.878;8.050;2023-04-25T14:53:02;10.00;92.30
35258;DHT22;21385;50.878;8.050;2023-04-25T14:55:28;9.90;92.80
35258;DHT22;21385;50.878;8.050;2023-04-25T14:57:54;9.90;93.30
35258;DHT22;21385;50.878;8.050;2023-04-25T15:00:20;9.80;93.50
35258;DHT22;21385;50.878;8.050;2023-04-25T15:02:50;9.80;94.10
35258;DHT22;21385;50.878;8.050;2023-04-25T15:05:16;9.70;95.80
35258;DHT22;21385;50.878;8.050;2023-04-25T15:07:43;9.70;96.90
35258;DHT22;21385;50.878;8.050;2023-04-25T15:10:09;9.70;97.10
35258;DHT22;21385;50.878;8.050;2023-04-25T15:12:39;9.70;97.30
35258;DHT22;21385;50.878;8.050;2023-04-25T15:15:06;9.80;96.10
35258;DHT22;21385;50.878;8.050;2023-04-25T15:17:43;9.90;96.30
35258;DHT22;21385;50.878;8.050;2023-04-25T15:20:10;10.00;96.60
35258;DHT22;21385;50.878;8.050;2023-04-25T15:22:40;10.10;96.30
35258;DHT22;21385;50.878;8.050;2023-04-25T15:25:10;10.10;96.00
35258;DHT22;21385;50.878;8.050;2023-04-25T15:27:37;10.20;95.00
35258;DHT22;21385;50.878;8.050;2023-04-25T15:30:10;10.20;95.30
35258;DHT22;21385;50.878;8.050;2023-04-25T15:32:40;10.50;96.20
35258;DHT22;21385;50.878;8.050;2023-04-25T15:35:07;10.90;95.10
35258;DHT22;21385;50.878;8.050;2023-04-25T15:37:34;11.30;93.50
35258;DHT22;21385;50.878;8.050;2023-04-25T15:40:15;11.50;93.10
35258;DHT22;21385;50.878;8.050;2023-04-25T15:42:46;11.70;90.60